Florissant, Missouri
Current Conditions -  °F | °C
As of 8:51 PM on Sunday 23 Nov 2014 (Local Time) from KSTL Reporting Station
Drizzle Drizzle  
Wind Chill: 56°   Ceiling: 600
Heat Index: 56°   Visibility: 6mi
Dew Point: 53°   Wind: 8mph
Humidity: 90%   Direction: 230°SW
Pressure: 29.25"   Gusts: NA
Location:  38.79°N, 90.32°W
Report Text: KSTL 240251Z 23007KT 6SM -DZ BR BKN006 OVC009 13/12 A2925 RMK AO2 SLP902 P0000 60004 T01330117 56017
Loading
Personal Weather Stations






























Interactive Weather Map New forecast layout! Learn more

10-Day Weather Forecast

Advertisements
Track Severe Weather on mobile